Airport View

Enter AWOS ICAO identifier for current METAR.

ex. KFNL

KTEW 270035Z AUTO 28009KT 5SM BR OVC005 00/00 A2982 RMK AO2 T00041001

27 Jan 2020 00:56

Frequency: 119.425

Phone: 517-676-5607

Other Area AWOS: KLAN - KFPK - KJXN - KOZW

TAF KLAN 262333Z 2700/2724 27010KT P6SM VCSH OVC011 FM270500 28006KT 4SM -SN BR OVC009 FM270800 29006KT 4SM -DZSN OVC008 FM271000 30006KT P6SM OVC015